AUA18Z LOWW-EDDM
Flight info
| Callsign | AUA18Z |
|---|---|
| Flight time | 0h 38m |
| Altitude | 28000 |
| Route | SOVIL DCT SITNI DCT BAGSI DCT MATIG DCT AMADI Q113 NAPSA NAPSA1B |
| Aircraft | A320/M-SDE3FGHIRWY/LB1 |
Departure
| Time | 2026-05-05 18:56 |
|---|---|
| Airport | Vienna International Airport (LOWW) |
Arrival
| Time | 2026-05-05 19:35 |
|---|---|
| Airport | Munich Airport (EDDM) |
| Time | Latitude | Longitude | Altitude | Speed | Heading |
|---|---|---|---|---|---|
| 2026-05-05 18:18 | 48.11762 | 16.56626 | 624 ft | 0 kts | 26° |
| 2026-05-05 18:21 | 48.11762 | 16.56625 | 624 ft | 0 kts | 26° |
| 2026-05-05 18:42 | 48.11761 | 16.56625 | 609 ft | 0 kts | 26° |
| 2026-05-05 18:46 | 48.11758 | 16.56623 | 623 ft | 3 kts | 26° |
| 2026-05-05 18:46 | 48.11735 | 16.56606 | 619 ft | 2 kts | 26° |
| 2026-05-05 18:47 | 48.11734 | 16.56605 | 620 ft | 0 kts | 26° |
| 2026-05-05 18:47 | 48.11721 | 16.56593 | 619 ft | 2 kts | 44° |
| 2026-05-05 18:48 | 48.11709 | 16.56576 | 625 ft | 3 kts | 51° |
| 2026-05-05 18:48 | 48.11700 | 16.56552 | 617 ft | 3 kts | 87° |
| 2026-05-05 18:48 | 48.11700 | 16.56535 | 623 ft | 0 kts | 111° |
| 2026-05-05 18:50 | 48.11689 | 16.56578 | 617 ft | 7 kts | 111° |
| 2026-05-05 18:51 | 48.11662 | 16.56663 | 613 ft | 10 kts | 116° |
| 2026-05-05 18:51 | 48.11628 | 16.56768 | 617 ft | 12 kts | 115° |
| 2026-05-05 18:51 | 48.11589 | 16.56886 | 609 ft | 13 kts | 116° |
| 2026-05-05 18:51 | 48.11547 | 16.57018 | 612 ft | 15 kts | 116° |
| 2026-05-05 18:52 | 48.11500 | 16.57160 | 620 ft | 16 kts | 115° |
| 2026-05-05 18:52 | 48.11451 | 16.57311 | 621 ft | 16 kts | 116° |
| 2026-05-05 18:52 | 48.11444 | 16.57416 | 621 ft | 9 kts | 34° |
| 2026-05-05 18:52 | 48.11496 | 16.57460 | 609 ft | 10 kts | 18° |
| 2026-05-05 18:53 | 48.11579 | 16.57442 | 618 ft | 12 kts | 346° |
| 2026-05-05 18:53 | 48.11656 | 16.57410 | 616 ft | 11 kts | 344° |
| 2026-05-05 18:53 | 48.11723 | 16.57381 | 622 ft | 10 kts | 343° |
| 2026-05-05 18:53 | 48.11809 | 16.57345 | 614 ft | 16 kts | 344° |
| 2026-05-05 18:54 | 48.11913 | 16.57302 | 609 ft | 14 kts | 344° |
| 2026-05-05 18:54 | 48.11989 | 16.57331 | 619 ft | 11 kts | 64° |
| 2026-05-05 18:54 | 48.12010 | 16.57436 | 621 ft | 10 kts | 75° |
| 2026-05-05 18:54 | 48.12001 | 16.57561 | 615 ft | 14 kts | 105° |
| 2026-05-05 18:55 | 48.11975 | 16.57708 | 621 ft | 15 kts | 105° |
| 2026-05-05 18:55 | 48.11928 | 16.57833 | 614 ft | 9 kts | 138° |
| 2026-05-05 18:55 | 48.11871 | 16.57864 | 613 ft | 10 kts | 163° |
| 2026-05-05 18:55 | 48.11691 | 16.57939 | 621 ft | 57 kts | 164° |
| 2026-05-05 18:56 | 48.11105 | 16.58189 | 614 ft | 116 kts | 164° |
| 2026-05-05 18:56 | 48.10180 | 16.58576 | 741 ft | 148 kts | 165° |
| 2026-05-05 18:56 | 48.09204 | 16.58976 | 1472 ft | 144 kts | 166° |
| 2026-05-05 18:56 | 48.08223 | 16.59367 | 2046 ft | 150 kts | 168° |
| 2026-05-05 18:57 | 48.07144 | 16.59806 | 2404 ft | 172 kts | 168° |
| 2026-05-05 18:57 | 48.05919 | 16.59943 | 2713 ft | 190 kts | 198° |
| 2026-05-05 18:57 | 48.04808 | 16.58680 | 3060 ft | 220 kts | 229° |
| 2026-05-05 18:57 | 48.03858 | 16.56752 | 3605 ft | 238 kts | 232° |
| 2026-05-05 18:58 | 48.02863 | 16.54714 | 4402 ft | 246 kts | 232° |
| 2026-05-05 18:58 | 48.01830 | 16.52600 | 4915 ft | 254 kts | 233° |
| 2026-05-05 18:58 | 48.00780 | 16.50457 | 5735 ft | 257 kts | 232° |
| 2026-05-05 18:58 | 47.99708 | 16.48282 | 6579 ft | 261 kts | 232° |
| 2026-05-05 18:59 | 47.98660 | 16.46081 | 7381 ft | 266 kts | 239° |
| 2026-05-05 18:59 | 47.97991 | 16.43450 | 8175 ft | 273 kts | 258° |
| 2026-05-05 18:59 | 47.97939 | 16.40595 | 8985 ft | 279 kts | 270° |
| 2026-05-05 18:59 | 47.98063 | 16.37719 | 9780 ft | 283 kts | 270° |
| 2026-05-05 19:00 | 47.98188 | 16.34754 | 10344 ft | 295 kts | 272° |
| 2026-05-05 19:00 | 47.98316 | 16.31568 | 10559 ft | 318 kts | 271° |
| 2026-05-05 19:00 | 47.98446 | 16.28197 | 11028 ft | 330 kts | 271° |
| 2026-05-05 19:00 | 47.98582 | 16.24740 | 11706 ft | 335 kts | 271° |
| 2026-05-05 19:01 | 47.98715 | 16.21293 | 12428 ft | 338 kts | 270° |
| 2026-05-05 19:01 | 47.98848 | 16.17764 | 13170 ft | 341 kts | 271° |
| 2026-05-05 19:01 | 47.98984 | 16.14196 | 13853 ft | 345 kts | 271° |
| 2026-05-05 19:01 | 47.99146 | 16.10602 | 14499 ft | 349 kts | 272° |
| 2026-05-05 19:02 | 47.99390 | 16.06980 | 15146 ft | 352 kts | 274° |
| 2026-05-05 19:02 | 47.99683 | 16.03331 | 15772 ft | 355 kts | 275° |
| 2026-05-05 19:02 | 47.99996 | 15.99654 | 16402 ft | 358 kts | 275° |
| 2026-05-05 19:02 | 48.00312 | 15.95943 | 17040 ft | 361 kts | 275° |
| 2026-05-05 19:03 | 48.00620 | 15.92203 | 17606 ft | 364 kts | 275° |
| 2026-05-05 19:03 | 48.00912 | 15.88484 | 18173 ft | 367 kts | 274° |
| 2026-05-05 19:03 | 48.01201 | 15.84678 | 18715 ft | 370 kts | 274° |
| 2026-05-05 19:03 | 48.01484 | 15.80846 | 19256 ft | 373 kts | 274° |
| 2026-05-05 19:04 | 48.01768 | 15.76984 | 19812 ft | 375 kts | 274° |
| 2026-05-05 19:04 | 48.02056 | 15.73082 | 20368 ft | 378 kts | 274° |
| 2026-05-05 19:04 | 48.02345 | 15.69152 | 20904 ft | 381 kts | 274° |
| 2026-05-05 19:04 | 48.02630 | 15.65235 | 21420 ft | 385 kts | 274° |
| 2026-05-05 19:05 | 48.02921 | 15.61251 | 21964 ft | 388 kts | 274° |
| 2026-05-05 19:05 | 48.03214 | 15.57222 | 22480 ft | 391 kts | 274° |
| 2026-05-05 19:05 | 48.03512 | 15.53144 | 22983 ft | 394 kts | 274° |
| 2026-05-05 19:05 | 48.03809 | 15.49063 | 23461 ft | 397 kts | 274° |
| 2026-05-05 19:06 | 48.04106 | 15.44939 | 23881 ft | 400 kts | 274° |
| 2026-05-05 19:06 | 48.04402 | 15.40795 | 24295 ft | 402 kts | 274° |
| 2026-05-05 19:06 | 48.04683 | 15.36613 | 24702 ft | 404 kts | 272° |
| 2026-05-05 19:06 | 48.04856 | 15.32404 | 25094 ft | 406 kts | 270° |
| 2026-05-05 19:07 | 48.04935 | 15.28241 | 25477 ft | 408 kts | 269° |
| 2026-05-05 19:07 | 48.04964 | 15.23984 | 25858 ft | 410 kts | 268° |
| 2026-05-05 19:07 | 48.04977 | 15.19716 | 26223 ft | 412 kts | 268° |
| 2026-05-05 19:07 | 48.05002 | 15.15410 | 26590 ft | 414 kts | 268° |
| 2026-05-05 19:08 | 48.05044 | 15.11082 | 26954 ft | 416 kts | 269° |
| 2026-05-05 19:08 | 48.05102 | 15.06804 | 27303 ft | 418 kts | 269° |
| 2026-05-05 19:08 | 48.05168 | 15.02446 | 27645 ft | 420 kts | 269° |
| 2026-05-05 19:08 | 48.05232 | 14.98078 | 27751 ft | 415 kts | 269° |
| 2026-05-05 19:09 | 48.05295 | 14.93830 | 27765 ft | 404 kts | 269° |
| 2026-05-05 19:09 | 48.05353 | 14.89642 | 27765 ft | 400 kts | 268° |
| 2026-05-05 19:09 | 48.05408 | 14.85487 | 27765 ft | 399 kts | 268° |
| 2026-05-05 19:09 | 48.05458 | 14.81336 | 27764 ft | 398 kts | 268° |
| 2026-05-05 19:10 | 48.05499 | 14.77194 | 27765 ft | 398 kts | 268° |
| 2026-05-05 19:10 | 48.05535 | 14.73101 | 27765 ft | 398 kts | 268° |
| 2026-05-05 19:10 | 48.05563 | 14.68970 | 27764 ft | 398 kts | 268° |
| 2026-05-05 19:10 | 48.05586 | 14.64827 | 27764 ft | 398 kts | 268° |
| 2026-05-05 19:11 | 48.05609 | 14.60691 | 27767 ft | 397 kts | 268° |
| 2026-05-05 19:11 | 48.05632 | 14.56555 | 27767 ft | 397 kts | 268° |
| 2026-05-05 19:11 | 48.05659 | 14.52424 | 27770 ft | 397 kts | 268° |
| 2026-05-05 19:11 | 48.05688 | 14.48294 | 27772 ft | 397 kts | 268° |
| 2026-05-05 19:12 | 48.05712 | 14.44225 | 27775 ft | 397 kts | 268° |
| 2026-05-05 19:12 | 48.05734 | 14.40099 | 27776 ft | 397 kts | 268° |
| 2026-05-05 19:12 | 48.05753 | 14.35976 | 27782 ft | 396 kts | 268° |
| 2026-05-05 19:12 | 48.05770 | 14.31847 | 27780 ft | 396 kts | 267° |
| 2026-05-05 19:13 | 48.05789 | 14.27726 | 27781 ft | 396 kts | 268° |
| 2026-05-05 19:13 | 48.05809 | 14.23605 | 27782 ft | 396 kts | 268° |
| 2026-05-05 19:13 | 48.05827 | 14.19492 | 27787 ft | 396 kts | 267° |
| 2026-05-05 19:13 | 48.05841 | 14.15415 | 27789 ft | 395 kts | 267° |
| 2026-05-05 19:14 | 48.05851 | 14.11305 | 27793 ft | 395 kts | 267° |
| 2026-05-05 19:14 | 48.05860 | 14.07194 | 27790 ft | 395 kts | 267° |
| 2026-05-05 19:14 | 48.05865 | 14.03097 | 27794 ft | 395 kts | 267° |
| 2026-05-05 19:14 | 48.05871 | 13.98990 | 27795 ft | 394 kts | 267° |
| 2026-05-05 19:15 | 48.05877 | 13.94889 | 27798 ft | 394 kts | 267° |
| 2026-05-05 19:15 | 48.05884 | 13.90776 | 27801 ft | 394 kts | 267° |
| 2026-05-05 19:15 | 48.05891 | 13.86677 | 27801 ft | 394 kts | 267° |
| 2026-05-05 19:15 | 48.05894 | 13.82591 | 27807 ft | 393 kts | 267° |
| 2026-05-05 19:16 | 48.05895 | 13.78500 | 27807 ft | 393 kts | 267° |
| 2026-05-05 19:16 | 48.05894 | 13.74409 | 27812 ft | 393 kts | 267° |
| 2026-05-05 19:16 | 48.05893 | 13.70358 | 27812 ft | 393 kts | 267° |
| 2026-05-05 19:16 | 48.05889 | 13.66276 | 27817 ft | 393 kts | 266° |
| 2026-05-05 19:17 | 48.05880 | 13.62193 | 27819 ft | 392 kts | 266° |
| 2026-05-05 19:17 | 48.05870 | 13.58105 | 27821 ft | 392 kts | 266° |
| 2026-05-05 19:17 | 48.05864 | 13.54075 | 27821 ft | 392 kts | 267° |
| 2026-05-05 19:17 | 48.05959 | 13.49986 | 27823 ft | 393 kts | 270° |
| 2026-05-05 19:18 | 48.06160 | 13.45905 | 27825 ft | 394 kts | 271° |
| 2026-05-05 19:18 | 48.06417 | 13.41820 | 27829 ft | 394 kts | 272° |
| 2026-05-05 19:18 | 48.06690 | 13.37745 | 27831 ft | 394 kts | 272° |
| 2026-05-05 19:18 | 48.06953 | 13.33654 | 27834 ft | 394 kts | 271° |
| 2026-05-05 19:19 | 48.07192 | 13.29629 | 27833 ft | 393 kts | 271° |
| 2026-05-05 19:19 | 48.07417 | 13.25553 | 27834 ft | 393 kts | 271° |
| 2026-05-05 19:19 | 48.07627 | 13.21481 | 27832 ft | 393 kts | 270° |
| 2026-05-05 19:19 | 48.07831 | 13.17389 | 27838 ft | 393 kts | 270° |
| 2026-05-05 19:20 | 48.08034 | 13.13318 | 27836 ft | 393 kts | 270° |
| 2026-05-05 19:20 | 48.08240 | 13.09225 | 27836 ft | 393 kts | 270° |
| 2026-05-05 19:20 | 48.08447 | 13.05153 | 27838 ft | 393 kts | 270° |
| 2026-05-05 19:20 | 48.08650 | 13.01173 | 27665 ft | 384 kts | 270° |
| 2026-05-05 19:21 | 48.08850 | 12.97176 | 26361 ft | 392 kts | 270° |
| 2026-05-05 19:21 | 48.09049 | 12.93141 | 25742 ft | 381 kts | 270° |
| 2026-05-05 19:21 | 48.09274 | 12.89242 | 25280 ft | 373 kts | 272° |
| 2026-05-05 19:21 | 48.09585 | 12.85374 | 24114 ft | 380 kts | 274° |
| 2026-05-05 19:22 | 48.09967 | 12.81377 | 22505 ft | 394 kts | 275° |
| 2026-05-05 19:22 | 48.10389 | 12.77279 | 20869 ft | 403 kts | 276° |
| 2026-05-05 19:22 | 48.10819 | 12.73125 | 19245 ft | 411 kts | 276° |
| 2026-05-05 19:22 | 48.11251 | 12.68847 | 17591 ft | 417 kts | 276° |
| 2026-05-05 19:23 | 48.11670 | 12.64568 | 16145 ft | 414 kts | 276° |
| 2026-05-05 19:23 | 48.12070 | 12.60355 | 15469 ft | 397 kts | 276° |
| 2026-05-05 19:23 | 48.12437 | 12.56408 | 15343 ft | 375 kts | 276° |
| 2026-05-05 19:23 | 48.12783 | 12.52647 | 15210 ft | 355 kts | 276° |
| 2026-05-05 19:24 | 48.13112 | 12.49067 | 15088 ft | 337 kts | 276° |
| 2026-05-05 19:24 | 48.13420 | 12.45671 | 14867 ft | 324 kts | 276° |
| 2026-05-05 19:24 | 48.13718 | 12.42360 | 14435 ft | 318 kts | 276° |
| 2026-05-05 19:24 | 48.14011 | 12.39088 | 13955 ft | 316 kts | 276° |
| 2026-05-05 19:25 | 48.14263 | 12.35872 | 13459 ft | 313 kts | 272° |
| 2026-05-05 19:25 | 48.14655 | 12.32678 | 12927 ft | 312 kts | 290° |
| 2026-05-05 19:25 | 48.15849 | 12.29972 | 12400 ft | 314 kts | 314° |
| 2026-05-05 19:25 | 48.17686 | 12.28223 | 11817 ft | 317 kts | 338° |
| 2026-05-05 19:26 | 48.19829 | 12.27614 | 11196 ft | 319 kts | 353° |
| 2026-05-05 19:26 | 48.22044 | 12.27383 | 10580 ft | 318 kts | 354° |
| 2026-05-05 19:26 | 48.24248 | 12.27196 | 9966 ft | 314 kts | 354° |
| 2026-05-05 19:26 | 48.26416 | 12.27024 | 9344 ft | 310 kts | 354° |
| 2026-05-05 19:27 | 48.28519 | 12.26867 | 9058 ft | 292 kts | 354° |
| 2026-05-05 19:27 | 48.30482 | 12.26730 | 8917 ft | 271 kts | 354° |
| 2026-05-05 19:27 | 48.32323 | 12.26611 | 8570 ft | 260 kts | 354° |
| 2026-05-05 19:27 | 48.34120 | 12.26501 | 8081 ft | 256 kts | 354° |
| 2026-05-05 19:28 | 48.35885 | 12.26394 | 7676 ft | 247 kts | 353° |
| 2026-05-05 19:28 | 48.37441 | 12.25828 | 7415 ft | 225 kts | 325° |
| 2026-05-05 19:28 | 48.38461 | 12.24216 | 7070 ft | 208 kts | 286° |
| 2026-05-05 19:28 | 48.38447 | 12.22114 | 6865 ft | 206 kts | 244° |
| 2026-05-05 19:29 | 48.37606 | 12.20344 | 6625 ft | 210 kts | 235° |
| 2026-05-05 19:29 | 48.37136 | 12.18331 | 6390 ft | 207 kts | 270° |
| 2026-05-05 19:29 | 48.37145 | 12.16162 | 6126 ft | 208 kts | 265° |
| 2026-05-05 19:29 | 48.36996 | 12.14001 | 5853 ft | 207 kts | 263° |
| 2026-05-05 19:30 | 48.36886 | 12.12570 | 5669 ft | 207 kts | 264° |
| 2026-05-05 19:30 | 48.36723 | 12.10403 | 5394 ft | 212 kts | 264° |
| 2026-05-05 19:30 | 48.36559 | 12.08193 | 5113 ft | 211 kts | 264° |
| 2026-05-05 19:30 | 48.36399 | 12.06028 | 4828 ft | 204 kts | 264° |
| 2026-05-05 19:31 | 48.36245 | 12.03952 | 4566 ft | 194 kts | 264° |
| 2026-05-05 19:31 | 48.36100 | 12.01996 | 4350 ft | 184 kts | 264° |
| 2026-05-05 19:31 | 48.35960 | 12.00129 | 4077 ft | 175 kts | 265° |
| 2026-05-05 19:31 | 48.35828 | 11.98360 | 3837 ft | 165 kts | 265° |
| 2026-05-05 19:32 | 48.35703 | 11.96682 | 3628 ft | 159 kts | 265° |
| 2026-05-05 19:32 | 48.35580 | 11.95041 | 3425 ft | 157 kts | 265° |
| 2026-05-05 19:32 | 48.35460 | 11.93440 | 3215 ft | 149 kts | 265° |
| 2026-05-05 19:32 | 48.35347 | 11.91942 | 3054 ft | 143 kts | 265° |
| 2026-05-05 19:33 | 48.35237 | 11.90477 | 2851 ft | 139 kts | 265° |
| 2026-05-05 19:33 | 48.35128 | 11.89034 | 2660 ft | 138 kts | 265° |
| 2026-05-05 19:33 | 48.35021 | 11.87611 | 2474 ft | 137 kts | 264° |
| 2026-05-05 19:33 | 48.34914 | 11.86199 | 2255 ft | 138 kts | 264° |
| 2026-05-05 19:34 | 48.34814 | 11.84759 | 2075 ft | 138 kts | 264° |
| 2026-05-05 19:34 | 48.34695 | 11.83313 | 1892 ft | 140 kts | 263° |
| 2026-05-05 19:34 | 48.34589 | 11.81858 | 1684 ft | 140 kts | 264° |
| 2026-05-05 19:35 | 48.34374 | 11.79095 | 1485 ft | 110 kts | 263° |
| 2026-05-05 19:35 | 48.34312 | 11.78243 | 1485 ft | 48 kts | 264° |
| 2026-05-05 19:35 | 48.34337 | 11.77915 | 1475 ft | 28 kts | 293° |
| 2026-05-05 19:35 | 48.34392 | 11.77729 | 1485 ft | 13 kts | 299° |
| 2026-05-05 19:36 | 48.34429 | 11.77600 | 1480 ft | 14 kts | 292° |
| 2026-05-05 19:36 | 48.34479 | 11.77464 | 1478 ft | 16 kts | 314° |
| 2026-05-05 19:36 | 48.34586 | 11.77428 | 1477 ft | 17 kts | 353° |
| 2026-05-05 19:36 | 48.34633 | 11.77502 | 1485 ft | 8 kts | 81° |
| 2026-05-05 19:37 | 48.34640 | 11.77595 | 1480 ft | 10 kts | 84° |
| 2026-05-05 19:37 | 48.34649 | 11.77716 | 1476 ft | 15 kts | 83° |
| 2026-05-05 19:37 | 48.34662 | 11.77885 | 1485 ft | 17 kts | 82° |
| 2026-05-05 19:37 | 48.34681 | 11.78117 | 1485 ft | 25 kts | 83° |
| 2026-05-05 19:38 | 48.34700 | 11.78376 | 1485 ft | 26 kts | 83° |
| 2026-05-05 19:38 | 48.34721 | 11.78649 | 1480 ft | 27 kts | 84° |
| 2026-05-05 19:38 | 48.34741 | 11.78909 | 1478 ft | 22 kts | 83° |
| 2026-05-05 19:38 | 48.34758 | 11.79137 | 1481 ft | 22 kts | 78° |
| 2026-05-05 19:39 | 48.34776 | 11.79362 | 1481 ft | 21 kts | 83° |
| 2026-05-05 19:39 | 48.34796 | 11.79537 | 1485 ft | 11 kts | 53° |
| 2026-05-05 19:39 | 48.34865 | 11.79555 | 1473 ft | 9 kts | 353° |
| 2026-05-05 19:39 | 48.34923 | 11.79546 | 1482 ft | 7 kts | 353° |
| 2026-05-05 19:40 | 48.34968 | 11.79538 | 1485 ft | 5 kts | 353° |
| 2026-05-05 19:40 | 48.35030 | 11.79526 | 1479 ft | 11 kts | 353° |
| 2026-05-05 19:40 | 48.35089 | 11.79572 | 1482 ft | 13 kts | 71° |
| 2026-05-05 19:40 | 48.35100 | 11.79695 | 1483 ft | 11 kts | 83° |
| 2026-05-05 19:41 | 48.35109 | 11.79804 | 1485 ft | 10 kts | 83° |
| 2026-05-05 19:41 | 48.35118 | 11.79928 | 1485 ft | 13 kts | 83° |
| 2026-05-05 19:41 | 48.35129 | 11.80075 | 1475 ft | 15 kts | 85° |
| 2026-05-05 19:41 | 48.35179 | 11.80191 | 1479 ft | 14 kts | 7° |
| 2026-05-05 19:42 | 48.35281 | 11.80172 | 1485 ft | 15 kts | 354° |
| 2026-05-05 19:42 | 48.35391 | 11.80149 | 1479 ft | 16 kts | 339° |
| 2026-05-05 19:42 | 48.35473 | 11.80120 | 1475 ft | 8 kts | 319° |
| 2026-05-05 19:42 | 48.35469 | 11.80069 | 1483 ft | 5 kts | 262° |
| 2026-05-05 19:43 | 48.35466 | 11.80021 | 1485 ft | 2 kts | 263° |
| 2026-05-05 19:43 | 48.35465 | 11.80019 | 1485 ft | 0 kts | 263° |